createdAt,value
2023-04-15T00:02:19.838Z,7.26
2023-04-15T00:04:48.678Z,7.34
2023-04-15T00:07:18.040Z,7.23
2023-04-15T00:09:46.130Z,7.12
2023-04-15T00:12:13.725Z,7.15
2023-04-15T00:14:41.242Z,7.08
2023-04-15T00:17:08.681Z,7.10
2023-04-15T00:19:36.961Z,7.15
2023-04-15T00:22:04.415Z,7.10
2023-04-15T00:24:32.753Z,7.00
2023-04-15T00:27:00.267Z,7.09
2023-04-15T00:29:28.480Z,7.14
2023-04-15T00:31:57.063Z,7.17
2023-04-15T00:34:24.730Z,7.20
2023-04-15T00:36:52.648Z,7.33
2023-04-15T00:39:20.770Z,7.40
2023-04-15T00:41:49.245Z,7.42
2023-04-15T00:44:18.866Z,7.45
2023-04-15T00:46:48.697Z,7.32
2023-04-15T00:49:16.264Z,7.16
2023-04-15T00:51:43.828Z,6.88
2023-04-15T00:54:12.252Z,6.76
2023-04-15T00:56:40.082Z,6.74
2023-04-15T00:59:08.492Z,6.75
2023-04-15T01:01:38.369Z,6.76
2023-04-15T01:04:07.144Z,6.78
2023-04-15T01:06:34.929Z,6.84
2023-04-15T01:09:03.526Z,6.86
2023-04-15T01:11:36.011Z,6.82
2023-04-15T01:14:04.331Z,6.76
2023-04-15T01:16:32.114Z,6.77
2023-04-15T01:19:00.288Z,6.72
2023-04-15T01:21:28.152Z,6.66
2023-04-15T01:23:57.110Z,6.56
2023-04-15T01:26:25.232Z,6.46
2023-04-15T01:28:52.661Z,6.54
2023-04-15T01:31:22.136Z,6.83
2023-04-15T01:33:49.663Z,7.08
2023-04-15T01:36:17.157Z,7.33
2023-04-15T01:38:44.629Z,7.34
2023-04-15T01:41:14.384Z,7.57
2023-04-15T01:43:41.901Z,7.58
2023-04-15T01:46:10.263Z,7.65
2023-04-15T01:48:37.716Z,7.65
2023-04-15T01:51:05.730Z,7.82
2023-04-15T01:53:34.306Z,7.77
2023-04-15T01:56:03.487Z,7.72
2023-04-15T01:58:31.481Z,7.60
2023-04-15T02:00:58.944Z,7.41
2023-04-15T02:03:26.708Z,7.34
2023-04-15T02:05:54.208Z,7.27
2023-04-15T02:08:22.447Z,7.18
2023-04-15T02:10:49.889Z,7.08
2023-04-15T02:13:17.431Z,7.00
2023-04-15T02:15:52.596Z,6.92
2023-04-15T02:18:20.627Z,6.86
2023-04-15T02:20:48.771Z,6.74
2023-04-15T02:23:16.902Z,6.73
2023-04-15T02:25:53.115Z,6.70
2023-04-15T02:28:22.032Z,6.78
2023-04-15T02:30:53.738Z,6.74
2023-04-15T02:33:22.141Z,6.78
2023-04-15T02:35:49.674Z,6.89
2023-04-15T02:38:18.035Z,6.92
2023-04-15T02:40:45.606Z,6.92
2023-04-15T02:43:13.710Z,6.96
2023-04-15T02:45:43.572Z,6.92
2023-04-15T02:48:11.619Z,6.91
2023-04-15T02:50:40.703Z,6.90
2023-04-15T02:53:09.980Z,6.86
2023-04-15T02:55:37.570Z,6.87
2023-04-15T02:58:05.373Z,6.93
2023-04-15T03:00:33.077Z,7.03
2023-04-15T03:03:06.594Z,7.18
2023-04-15T03:05:34.482Z,7.12
2023-04-15T03:08:04.836Z,7.19
2023-04-15T03:10:32.758Z,7.06
2023-04-15T03:13:02.354Z,6.97
2023-04-15T03:15:29.839Z,6.94
2023-04-15T03:17:57.444Z,6.92
2023-04-15T03:20:25.028Z,6.84
2023-04-15T03:22:52.852Z,6.80
2023-04-15T03:25:22.516Z,6.79
2023-04-15T03:27:50.033Z,6.68
2023-04-15T03:30:18.666Z,6.67
2023-04-15T03:32:46.779Z,6.70
2023-04-15T03:35:14.302Z,6.76
2023-04-15T03:37:42.028Z,6.84
2023-04-15T03:40:10.102Z,6.91
2023-04-15T03:42:37.547Z,6.94
2023-04-15T03:45:05.895Z,6.97
2023-04-15T03:47:33.735Z,7.00
2023-04-15T03:50:01.203Z,7.06
2023-04-15T03:52:28.624Z,7.12
2023-04-15T03:54:56.069Z,7.19
2023-04-15T03:57:23.956Z,7.27
2023-04-15T03:59:51.419Z,7.32
2023-04-15T04:02:19.151Z,7.39
2023-04-15T04:04:47.098Z,7.48
2023-04-15T04:07:18.371Z,7.57
2023-04-15T04:09:47.340Z,7.65
2023-04-15T04:12:15.096Z,7.79
2023-04-15T04:14:42.682Z,7.89
2023-04-15T04:17:10.590Z,8.00
2023-04-15T04:19:38.201Z,8.06
2023-04-15T04:22:06.518Z,8.10
2023-04-15T04:24:34.157Z,8.14
2023-04-15T04:27:02.164Z,8.18
2023-04-15T04:29:29.656Z,8.26
2023-04-15T04:31:57.183Z,8.34
2023-04-15T04:34:24.677Z,8.43
2023-04-15T04:36:52.167Z,8.54
2023-04-15T04:39:19.619Z,8.63
2023-04-15T04:41:47.299Z,8.55
2023-04-15T04:44:14.809Z,8.70
2023-04-15T04:46:42.242Z,8.89
2023-04-15T04:49:09.928Z,9.11
2023-04-15T04:51:37.540Z,9.28
2023-04-15T04:54:05.043Z,9.40
2023-04-15T04:56:34.292Z,9.83
2023-04-15T04:59:02.170Z,9.98
2023-04-15T05:01:29.874Z,10.39
2023-04-15T05:03:57.630Z,10.55
2023-04-15T05:06:25.234Z,10.77
2023-04-15T05:08:52.871Z,10.44
2023-04-15T05:11:20.421Z,10.38
2023-04-15T05:13:47.897Z,10.35
2023-04-15T05:16:15.969Z,10.29
2023-04-15T05:18:43.476Z,10.41
2023-04-15T05:21:11.510Z,10.71
2023-04-15T05:23:39.460Z,10.80
2023-04-15T05:26:07.017Z,10.95
2023-04-15T05:28:35.090Z,11.06
2023-04-15T05:31:03.238Z,11.30
2023-04-15T05:33:30.851Z,11.00
2023-04-15T05:35:58.364Z,11.17
2023-04-15T05:38:26.187Z,12.10
2023-04-15T05:40:53.745Z,11.57
2023-04-15T05:43:21.593Z,13.86
2023-04-15T05:45:49.096Z,14.69
2023-04-15T05:48:16.644Z,19.22
2023-04-15T05:50:44.308Z,23.32
2023-04-15T05:53:11.850Z,23.78
2023-04-15T05:55:39.385Z,25.33
2023-04-15T05:58:06.967Z,26.02
2023-04-15T06:00:34.645Z,26.30
2023-04-15T06:03:02.449Z,25.49
2023-04-15T06:05:29.996Z,27.13
2023-04-15T06:07:57.708Z,26.24
2023-04-15T06:10:25.200Z,26.98
2023-04-15T06:12:53.626Z,26.81
2023-04-15T06:15:21.169Z,27.30
2023-04-15T06:17:48.678Z,28.95
2023-04-15T06:20:16.420Z,26.81
2023-04-15T06:22:43.990Z,28.86
2023-04-15T06:25:11.722Z,29.45
2023-04-15T06:27:39.370Z,31.17
2023-04-15T06:30:08.002Z,31.88
2023-04-15T06:32:35.751Z,31.53
2023-04-15T06:35:04.047Z,31.85
2023-04-15T06:37:32.938Z,30.93
2023-04-15T06:40:00.602Z,30.57
2023-04-15T06:42:28.155Z,30.97
2023-04-15T06:44:55.742Z,31.39
2023-04-15T06:47:23.239Z,30.94
2023-04-15T06:49:50.976Z,31.87
2023-04-15T06:52:18.444Z,31.87
2023-04-15T06:54:45.964Z,29.76
2023-04-15T06:57:13.451Z,30.79
2023-04-15T06:59:43.697Z,30.42
2023-04-15T07:02:14.108Z,28.09
2023-04-15T07:04:41.773Z,27.73
2023-04-15T07:07:09.487Z,30.02
2023-04-15T07:09:36.891Z,28.55
2023-04-15T07:12:04.412Z,25.77
2023-04-15T07:14:31.953Z,29.02
2023-04-15T07:16:59.447Z,28.81
2023-04-15T07:19:27.186Z,29.82
2023-04-15T07:21:54.650Z,30.78
2023-04-15T07:24:23.258Z,32.18
2023-04-15T07:26:51.211Z,27.66
2023-04-15T07:29:20.042Z,28.35
2023-04-15T07:31:47.488Z,31.03
2023-04-15T07:34:15.036Z,32.32
2023-04-15T07:36:43.219Z,29.33
2023-04-15T07:39:11.036Z,29.47
2023-04-15T07:41:39.034Z,28.60
2023-04-15T07:44:06.478Z,29.07
2023-04-15T07:46:34.203Z,28.30
2023-04-15T07:49:02.045Z,29.25
2023-04-15T07:51:30.746Z,31.70
2023-04-15T07:53:58.708Z,31.43
2023-04-15T07:56:26.580Z,32.65
2023-04-15T07:58:54.084Z,30.99
2023-04-15T08:01:21.774Z,31.84
2023-04-15T08:03:49.414Z,31.58
2023-04-15T08:06:17.260Z,27.35
2023-04-15T08:08:46.751Z,27.81
2023-04-15T08:11:14.722Z,26.72
2023-04-15T08:13:42.261Z,25.45
2023-04-15T08:16:24.743Z,23.24
2023-04-15T08:21:21.435Z,23.08
2023-04-15T08:23:52.274Z,23.73
2023-04-15T08:26:21.625Z,22.91
2023-04-15T08:28:50.062Z,24.22
2023-04-15T08:31:19.101Z,23.59
2023-04-15T08:33:46.824Z,25.28
2023-04-15T08:36:14.964Z,23.70
2023-04-15T08:38:44.517Z,22.90
2023-04-15T08:41:31.783Z,22.95
2023-04-15T08:44:05.240Z,22.65
2023-04-15T08:46:37.052Z,21.65
2023-04-15T08:49:05.683Z,23.20
2023-04-15T08:51:34.070Z,23.10
2023-04-15T08:54:03.475Z,22.31
2023-04-15T08:56:33.619Z,22.00
2023-04-15T08:59:01.871Z,21.69
2023-04-15T09:01:29.804Z,21.05
2023-04-15T09:03:59.845Z,21.31
2023-04-15T09:06:27.384Z,20.66
2023-04-15T09:08:54.995Z,22.01
2023-04-15T09:11:22.795Z,23.20
2023-04-15T09:13:50.819Z,24.27
2023-04-15T09:16:18.880Z,22.58
2023-04-15T09:18:46.503Z,21.61
2023-04-15T09:21:17.663Z,20.12
2023-04-15T09:23:58.390Z,20.58
2023-04-15T09:26:34.086Z,20.13
2023-04-15T09:29:07.935Z,18.78
2023-04-15T09:31:37.141Z,19.08
2023-04-15T09:34:06.213Z,19.50
2023-04-15T09:36:56.849Z,19.68
2023-04-15T09:39:24.499Z,19.75
2023-04-15T09:42:08.481Z,19.63
2023-04-15T09:44:36.490Z,20.71
2023-04-15T09:47:04.024Z,19.43
2023-04-15T09:49:31.764Z,19.73
2023-04-15T09:52:06.075Z,19.80
2023-04-15T09:54:38.843Z,18.72
2023-04-15T09:57:09.948Z,18.35
2023-04-15T09:59:37.749Z,18.46
2023-04-15T10:02:09.451Z,18.93
2023-04-15T10:04:41.628Z,19.37
2023-04-15T10:07:10.085Z,18.79
2023-04-15T10:09:39.591Z,21.69
2023-04-15T10:12:07.603Z,21.97
2023-04-15T10:14:38.615Z,22.75
2023-04-15T10:17:08.298Z,21.71
2023-04-15T10:19:38.033Z,20.92
2023-04-15T10:22:06.885Z,22.02
2023-04-15T10:24:36.474Z,22.02
2023-04-15T10:27:05.809Z,21.42
2023-04-15T10:29:34.098Z,20.67
2023-04-15T10:32:03.072Z,21.89
2023-04-15T10:34:32.795Z,21.73
2023-04-15T10:37:05.822Z,21.95
2023-04-15T10:39:33.208Z,19.13
2023-04-15T10:42:15.411Z,18.92
2023-04-15T10:44:56.429Z,19.15
2023-04-15T10:47:24.114Z,19.87
2023-04-15T10:50:02.726Z,20.75
2023-04-15T10:52:30.232Z,20.40
2023-04-15T10:55:19.511Z,19.70
2023-04-15T10:57:47.094Z,19.36
2023-04-15T11:00:19.762Z,18.33
2023-04-15T11:02:57.389Z,18.64
2023-04-15T11:05:43.372Z,19.23
2023-04-15T11:08:12.826Z,19.82
2023-04-15T11:10:40.346Z,19.56
2023-04-15T11:13:11.010Z,19.70
2023-04-15T11:15:47.061Z,22.00
2023-04-15T11:18:24.033Z,23.72
2023-04-15T11:20:54.953Z,24.49
2023-04-15T11:23:46.791Z,23.42
2023-04-15T11:26:15.458Z,22.64
2023-04-15T11:28:45.835Z,21.27
2023-04-15T11:31:20.137Z,21.71
2023-04-15T11:33:59.519Z,21.35
2023-04-15T11:36:30.383Z,21.47
2023-04-15T11:38:59.824Z,21.66
2023-04-15T11:41:27.407Z,21.06
2023-04-15T11:43:54.894Z,21.77
2023-04-15T11:46:30.780Z,21.97
2023-04-15T11:48:58.337Z,22.85
2023-04-15T11:51:26.114Z,22.88
2023-04-15T11:53:54.845Z,22.31
2023-04-15T11:56:25.674Z,21.95
2023-04-15T11:58:59.371Z,22.65
2023-04-15T12:01:47.266Z,21.68
2023-04-15T12:04:20.887Z,22.17
2023-04-15T12:06:50.733Z,22.08
2023-04-15T12:09:20.252Z,22.25
2023-04-15T12:11:55.088Z,22.21
2023-04-15T12:14:32.059Z,20.68
2023-04-15T12:17:02.840Z,21.67
2023-04-15T12:19:37.958Z,21.53
2023-04-15T12:22:11.309Z,21.31
2023-04-15T12:24:40.016Z,21.20
2023-04-15T12:27:12.718Z,21.15
2023-04-15T12:29:43.212Z,21.02
2023-04-15T12:32:16.878Z,21.04
2023-04-15T12:34:52.449Z,21.53
2023-04-15T12:37:21.043Z,21.10
2023-04-15T12:39:50.177Z,21.19
2023-04-15T12:42:19.006Z,21.65
2023-04-15T12:44:47.358Z,22.49
2023-04-15T12:47:15.414Z,22.06
2023-04-15T12:49:42.849Z,22.56
2023-04-15T12:52:10.529Z,22.71
2023-04-15T12:54:38.159Z,23.36
2023-04-15T12:57:07.417Z,23.36
2023-04-15T12:59:36.126Z,22.87
2023-04-15T13:02:04.359Z,22.88
2023-04-15T13:04:32.163Z,21.28
2023-04-15T13:06:59.748Z,20.50
2023-04-15T13:09:27.179Z,20.12
2023-04-15T13:11:54.896Z,20.62
2023-04-15T13:14:22.393Z,20.79
2023-04-15T13:16:49.880Z,20.84
2023-04-15T13:19:17.335Z,20.99
2023-04-15T13:21:44.796Z,21.03
2023-04-15T13:24:12.271Z,21.30
2023-04-15T13:26:39.757Z,20.49
2023-04-15T13:29:07.353Z,20.07
2023-04-15T13:31:35.012Z,20.45
2023-04-15T13:34:02.729Z,21.50
2023-04-15T13:36:30.684Z,21.98
2023-04-15T13:38:58.479Z,22.11
2023-04-15T13:41:25.957Z,21.50
2023-04-15T13:43:53.346Z,21.53
2023-04-15T13:46:21.095Z,20.09
2023-04-15T13:48:48.606Z,20.58
2023-04-15T13:51:16.224Z,21.06
2023-04-15T13:53:45.993Z,20.70
2023-04-15T13:56:13.525Z,20.52
2023-04-15T13:58:41.811Z,20.44
2023-04-15T14:01:09.360Z,20.27
2023-04-15T14:03:37.383Z,20.11
2023-04-15T14:06:06.422Z,19.89
2023-04-15T14:08:34.169Z,19.93
2023-04-15T14:11:01.684Z,19.96
2023-04-15T14:13:29.447Z,19.91
2023-04-15T14:15:57.629Z,19.60
2023-04-15T14:18:25.605Z,19.53
2023-04-15T14:20:53.231Z,19.64
2023-04-15T14:23:20.848Z,19.96
2023-04-15T14:25:51.907Z,19.55
2023-04-15T14:28:19.493Z,20.67
2023-04-15T14:30:47.115Z,20.80
2023-04-15T14:33:14.635Z,20.41
2023-04-15T14:35:42.213Z,20.51
2023-04-15T14:38:11.291Z,19.96
2023-04-15T14:40:39.232Z,19.45
2023-04-15T14:43:06.849Z,19.48
2023-04-15T14:45:34.989Z,19.44
2023-04-15T14:48:02.512Z,19.26
2023-04-15T14:50:30.112Z,19.34
2023-04-15T14:52:59.235Z,19.04
2023-04-15T14:55:26.857Z,18.63
2023-04-15T14:57:54.430Z,18.38
2023-04-15T15:00:22.060Z,18.33
2023-04-15T15:02:49.748Z,18.23
2023-04-15T15:05:17.562Z,18.27
2023-04-15T15:07:45.759Z,18.16
2023-04-15T15:10:13.444Z,17.97
2023-04-15T15:12:40.981Z,17.90
2023-04-15T15:15:25.037Z,17.73
2023-04-15T15:17:55.131Z,17.57
2023-04-15T15:20:23.750Z,17.56
2023-04-15T15:22:51.665Z,17.60
2023-04-15T15:25:19.625Z,17.37
2023-04-15T15:27:47.547Z,17.30
2023-04-15T15:30:15.682Z,17.13
2023-04-15T15:32:43.706Z,17.18
2023-04-15T15:35:11.528Z,16.83
2023-04-15T15:37:39.091Z,16.66
2023-04-15T15:40:08.227Z,16.42
2023-04-15T15:42:36.042Z,16.10
2023-04-15T15:45:04.865Z,16.00
2023-04-15T15:47:33.863Z,15.80
2023-04-15T15:50:02.705Z,15.79
2023-04-15T15:52:31.841Z,15.72
2023-04-15T15:54:59.405Z,15.78
2023-04-15T15:57:26.862Z,15.94
2023-04-15T16:00:04.961Z,15.83
2023-04-15T16:05:11.383Z,15.38
2023-04-15T16:07:38.906Z,15.26
2023-04-15T16:10:07.433Z,15.09
2023-04-15T16:12:35.193Z,15.08
2023-04-15T16:15:03.856Z,15.03
2023-04-15T16:17:31.434Z,14.91
2023-04-15T16:20:01.149Z,15.15
2023-04-15T16:22:30.416Z,15.35
2023-04-15T16:24:59.690Z,15.25
2023-04-15T16:27:28.086Z,15.14
2023-04-15T16:29:55.768Z,14.87
2023-04-15T16:32:23.349Z,14.90
2023-04-15T16:34:53.160Z,14.91
2023-04-15T16:37:21.639Z,14.89
2023-04-15T16:39:49.169Z,14.68
2023-04-15T16:42:17.254Z,14.50
2023-04-15T16:44:44.727Z,14.29
2023-04-15T16:47:12.234Z,14.30
2023-04-15T16:49:39.687Z,14.29
2023-04-15T16:52:07.706Z,14.32
2023-04-15T16:54:37.688Z,14.28
2023-04-15T16:57:05.143Z,14.10
2023-04-15T16:59:32.640Z,13.95
2023-04-15T17:02:00.624Z,13.89
2023-04-15T17:04:28.787Z,13.75
2023-04-15T17:06:56.460Z,13.62
2023-04-15T17:09:23.971Z,13.55
2023-04-15T17:11:51.496Z,13.45
2023-04-15T17:14:19.039Z,13.32
2023-04-15T17:16:47.576Z,13.23
2023-04-15T17:19:15.027Z,13.07
2023-04-15T17:21:43.450Z,12.90
2023-04-15T17:24:11.429Z,12.79
2023-04-15T17:26:38.922Z,12.69
2023-04-15T17:29:06.859Z,12.57
2023-04-15T17:31:34.721Z,12.41
2023-04-15T17:34:09.653Z,12.33
2023-04-15T17:36:38.663Z,12.22
2023-04-15T17:39:06.662Z,12.14
2023-04-15T17:41:34.468Z,12.10
2023-04-15T17:44:01.994Z,12.03
2023-04-15T17:46:29.980Z,11.97
2023-04-15T17:48:57.494Z,11.92
2023-04-15T17:51:24.958Z,11.88
2023-04-15T17:54:07.530Z,11.83
2023-04-15T17:56:35.494Z,11.74
2023-04-15T17:59:03.565Z,11.65
2023-04-15T18:01:32.295Z,11.60
2023-04-15T18:03:59.948Z,11.60
2023-04-15T18:06:29.140Z,11.63
2023-04-15T18:08:56.622Z,11.72
2023-04-15T18:11:24.168Z,11.66
2023-04-15T18:13:51.749Z,11.62
2023-04-15T18:16:19.372Z,11.64
2023-04-15T18:18:46.975Z,11.63
2023-04-15T18:21:16.698Z,11.61
2023-04-15T18:23:45.350Z,11.60
2023-04-15T18:26:13.506Z,11.58
2023-04-15T18:28:41.211Z,11.55
2023-04-15T18:31:08.790Z,11.55
2023-04-15T18:33:36.344Z,11.52
2023-04-15T18:36:04.085Z,11.50
2023-04-15T18:38:31.890Z,11.50
2023-04-15T18:40:59.452Z,11.49
2023-04-15T18:43:27.020Z,11.47
2023-04-15T18:45:54.998Z,11.48
2023-04-15T18:48:22.850Z,11.44
2023-04-15T18:50:53.979Z,11.39
2023-04-15T18:53:23.065Z,11.39
2023-04-15T18:55:50.684Z,11.36
2023-04-15T18:58:18.138Z,11.35
2023-04-15T19:00:45.677Z,11.33
2023-04-15T19:03:14.753Z,11.22
2023-04-15T19:05:42.591Z,11.12
2023-04-15T19:08:12.366Z,11.02
2023-04-15T19:10:39.921Z,10.96
2023-04-15T19:13:07.433Z,10.86
2023-04-15T19:15:35.491Z,10.80
2023-04-15T19:18:05.339Z,10.72
2023-04-15T19:20:34.857Z,10.69
2023-04-15T19:23:04.773Z,10.65
2023-04-15T19:25:32.659Z,10.61
2023-04-15T19:28:00.264Z,10.60
2023-04-15T19:30:28.711Z,10.53
2023-04-15T19:32:56.224Z,10.49
2023-04-15T19:35:23.664Z,10.46
2023-04-15T19:37:51.214Z,10.44
2023-04-15T19:40:18.718Z,10.44
2023-04-15T19:42:46.116Z,10.42
2023-04-15T19:45:13.811Z,10.43
2023-04-15T19:47:41.469Z,10.43
2023-04-15T19:50:11.896Z,10.40
2023-04-15T19:52:39.357Z,10.39
2023-04-15T19:55:07.212Z,10.38
2023-04-15T19:57:34.763Z,10.40
2023-04-15T20:00:05.963Z,10.40
2023-04-15T20:02:33.624Z,10.40
2023-04-15T20:05:01.425Z,10.39
2023-04-15T20:07:28.995Z,10.39
2023-04-15T20:09:56.644Z,10.40
2023-04-15T20:12:50.206Z,10.41
2023-04-15T20:15:12.754Z,10.40
2023-04-15T20:17:40.468Z,10.42
2023-04-15T20:20:09.121Z,10.43
2023-04-15T20:22:36.616Z,10.44
2023-04-15T20:25:04.978Z,10.46
2023-04-15T20:27:32.432Z,10.48
2023-04-15T20:29:59.885Z,10.49
2023-04-15T20:32:28.933Z,10.49
2023-04-15T20:34:56.556Z,10.48
2023-04-15T20:37:24.028Z,10.54
2023-04-15T20:39:51.589Z,10.52
2023-04-15T20:42:19.827Z,10.50
2023-04-15T20:44:47.358Z,10.54
2023-04-15T20:47:14.808Z,10.57
2023-04-15T20:49:42.296Z,10.58
2023-04-15T20:52:10.164Z,10.55
2023-04-15T20:54:37.617Z,10.54
2023-04-15T20:57:05.034Z,10.52
2023-04-15T20:59:34.827Z,10.47
2023-04-15T21:02:02.685Z,10.55
2023-04-15T21:04:30.714Z,10.53
2023-04-15T21:06:58.264Z,10.43
2023-04-15T21:09:25.923Z,10.25
2023-04-15T21:12:01.063Z,10.16
2023-04-15T21:14:29.556Z,10.14
2023-04-15T21:16:58.949Z,10.10
2023-04-15T21:19:26.640Z,10.11
2023-04-15T21:21:54.216Z,10.12
2023-04-15T21:24:21.719Z,10.05
2023-04-15T21:26:50.377Z,9.99
2023-04-15T21:29:18.118Z,9.89
2023-04-15T21:31:45.902Z,9.76
2023-04-15T21:34:13.547Z,9.62
2023-04-15T21:36:41.068Z,9.50
2023-04-15T21:39:08.663Z,9.41
2023-04-15T21:41:39.176Z,9.38
2023-04-15T21:44:06.755Z,9.28
2023-04-15T21:46:35.581Z,9.31
2023-04-15T21:49:07.112Z,9.37
2023-04-15T21:51:35.176Z,9.39
2023-04-15T21:54:02.907Z,9.38
2023-04-15T21:56:30.372Z,9.36
2023-04-15T21:58:58.190Z,9.36
2023-04-15T22:01:26.511Z,9.27
2023-04-15T22:03:54.282Z,9.19
2023-04-15T22:06:22.050Z,9.14
2023-04-15T22:08:56.764Z,9.18
2023-04-15T22:11:30.469Z,9.19
2023-04-15T22:13:59.271Z,9.13
2023-04-15T22:16:27.360Z,9.11
2023-04-15T22:18:55.796Z,9.08
2023-04-15T22:21:23.860Z,9.07
2023-04-15T22:23:52.255Z,9.05
2023-04-15T22:26:19.718Z,9.08
2023-04-15T22:28:47.250Z,9.08
2023-04-15T22:31:15.453Z,9.11
2023-04-15T22:33:43.001Z,9.09
2023-04-15T22:36:10.718Z,9.06
2023-04-15T22:38:38.199Z,9.05
2023-04-15T22:41:05.707Z,9.08
2023-04-15T22:43:33.126Z,9.06
2023-04-15T22:46:01.424Z,9.11
2023-04-15T22:48:29.005Z,9.11
2023-04-15T22:50:56.518Z,9.15
2023-04-15T22:53:24.576Z,9.15
2023-04-15T22:55:52.307Z,9.21
2023-04-15T22:58:19.814Z,9.23
2023-04-15T23:00:47.425Z,9.24
2023-04-15T23:03:15.089Z,9.27
2023-04-15T23:05:44.980Z,9.32
2023-04-15T23:08:12.392Z,9.35
2023-04-15T23:10:40.245Z,9.32
2023-04-15T23:13:07.805Z,9.20
2023-04-15T23:15:36.028Z,9.05
2023-04-15T23:18:03.649Z,8.96
2023-04-15T23:20:31.114Z,8.88
2023-04-15T23:22:58.725Z,8.80
2023-04-15T23:25:26.207Z,8.77
2023-04-15T23:27:53.859Z,8.76
2023-04-15T23:30:21.733Z,8.70
2023-04-15T23:32:50.286Z,8.63
2023-04-15T23:35:17.908Z,8.54
2023-04-15T23:37:45.521Z,8.53
2023-04-15T23:40:14.103Z,8.60
2023-04-15T23:42:42.108Z,8.64
2023-04-15T23:45:10.502Z,8.42
2023-04-15T23:47:39.133Z,8.27
2023-04-15T23:50:09.045Z,8.20
2023-04-15T23:52:36.963Z,8.31
2023-04-15T23:55:04.945Z,8.50
2023-04-15T23:57:32.376Z,8.62
